Time;durP1;ratioP1;P1;durP2;ratioP2;P2;SDS_P1;SDS_P2;PMS_P1;PMS_P2;Temp;Humidity;BMP_temperature;BMP_pressure;BME280_temperature;BME280_humidity;BME280_pressure;Samples;Min_cycle;Max_cycle;Signal;HPM_P1;HPM_P2
2021/08/06 00:00:06;;;;;;;7.57;6.97;;;;;23.10;99272.00;;;;2062227;28;20711;-55
2021/08/06 00:01:06;;;;;;;7.90;7.10;;;;;23.10;99283.00;;;;2065202;28;20281;-56
2021/08/06 00:02:06;;;;;;;7.57;6.87;;;;;23.10;99275.00;;;;2066930;28;20453;-57
2021/08/06 00:03:07;;;;;;;7.70;7.00;;;;;23.10;99275.00;;;;2063277;28;20215;-57
2021/08/06 00:04:07;;;;;;;7.63;6.93;;;;;23.10;99275.00;;;;2066201;28;20300;-55
2021/08/06 00:05:08;;;;;;;7.43;6.73;;;;;23.10;99280.00;;;;2064100;28;20222;-56
2021/08/06 00:06:09;;;;;;;7.93;7.22;;;;;23.10;99274.00;;;;2064263;28;20215;-55
2021/08/06 00:07:09;;;;;;;8.40;7.63;;;;;23.10;99276.00;;;;2060074;28;20211;-55
2021/08/06 00:08:10;;;;;;;8.03;6.97;;;;;23.10;99279.00;;;;2053768;28;20266;-56
2021/08/06 00:09:10;;;;;;;6.80;6.20;;;;;23.10;99279.00;;;;2051873;28;20884;-55
2021/08/06 00:10:11;;;;;;;8.33;7.63;;;;;23.10;99283.00;;;;2053901;28;20218;-55
2021/08/06 00:11:11;;;;;;;6.93;6.33;;;;;23.10;99275.00;;;;2053727;28;20262;-55
2021/08/06 00:12:12;;;;;;;7.10;6.50;;;;;23.10;99278.00;;;;2053705;28;20215;-55
2021/08/06 00:13:12;;;;;;;8.10;7.30;;;;;23.10;99281.00;;;;2053939;28;20219;-55
2021/08/06 00:14:12;;;;;;;7.20;6.60;;;;;23.10;99277.00;;;;2053935;28;20302;-55
2021/08/06 00:15:13;;;;;;;6.73;6.13;;;;;23.10;99275.00;;;;2054429;28;20219;-55
2021/08/06 00:16:17;;;;;;;7.17;6.47;;;;;23.10;99275.00;;;;2053511;28;20642;-56
2021/08/06 00:17:17;;;;;;;7.30;6.70;;;;;23.00;99275.00;;;;2060872;28;20225;-56
2021/08/06 00:18:18;;;;;;;6.93;6.33;;;;;23.10;99271.00;;;;2062765;28;20289;-54
2021/08/06 00:19:19;;;;;;;7.90;6.70;;;;;23.10;99267.00;;;;2061621;28;20561;-54
2021/08/06 00:20:19;;;;;;;6.70;6.13;;;;;23.10;99268.00;;;;2060266;28;20203;-55
2021/08/06 00:21:20;;;;;;;6.40;5.70;;;;;23.10;99264.00;;;;2061969;28;20612;-55
2021/08/06 00:22:20;;;;;;;6.73;6.13;;;;;23.10;99266.00;;;;2062554;28;20245;-55
2021/08/06 00:23:22;;;;;;;7.10;6.40;;;;;23.10;99270.00;;;;2063243;28;20213;-55
2021/08/06 00:24:23;;;;;;;6.18;5.65;;;;;23.10;99265.00;;;;2064232;28;20206;-55
2021/08/06 00:25:23;;;;;;;6.63;6.03;;;;;23.10;99271.00;;;;2063588;28;20214;-55
2021/08/06 00:26:23;;;;;;;6.53;5.83;;;;;23.10;99269.00;;;;2070084;28;20297;-55
2021/08/06 00:27:24;;;;;;;6.40;5.80;;;;;23.10;99270.00;;;;2064292;28;20207;-56
2021/08/06 00:28:25;;;;;;;6.30;5.70;;;;;23.10;99272.00;;;;2063636;28;20211;-55
2021/08/06 00:29:25;;;;;;;6.23;5.70;;;;;23.10;99270.00;;;;2063666;28;20334;-55
2021/08/06 00:30:27;;;;;;;6.77;6.07;;;;;23.10;99271.00;;;;2063984;28;20229;-55
2021/08/06 00:31:27;;;;;;;6.57;5.97;;;;;23.10;99269.00;;;;2063758;28;20226;-55
2021/08/06 00:32:28;;;;;;;6.63;6.03;;;;;23.10;99276.00;;;;2063636;28;20692;-56
2021/08/06 00:33:28;;;;;;;6.50;5.90;;;;;23.10;99271.00;;;;2063934;28;20225;-56
2021/08/06 00:34:29;;;;;;;5.77;5.27;;;;;23.10;99273.00;;;;2063265;28;20937;-55
2021/08/06 00:35:29;;;;;;;5.70;5.20;;;;;23.10;99260.00;;;;2064519;28;20225;-55
2021/08/06 00:36:30;;;;;;;6.87;6.30;;;;;23.10;99269.00;;;;2066501;28;20645;-55
2021/08/06 00:37:30;;;;;;;6.60;6.00;;;;;23.10;99269.00;;;;2065247;28;20243;-55
2021/08/06 00:38:31;;;;;;;6.20;5.70;;;;;23.10;99261.00;;;;2067445;28;20202;-55
2021/08/06 00:39:31;;;;;;;7.13;6.43;;;;;23.10;99272.00;;;;2066643;28;20774;-55
2021/08/06 00:40:32;;;;;;;6.63;6.00;;;;;23.10;99269.00;;;;2063306;28;20298;-56
2021/08/06 00:41:32;;;;;;;6.20;5.70;;;;;23.00;99260.00;;;;2057100;28;20315;-55
2021/08/06 00:42:32;;;;;;;5.83;5.33;;;;;23.10;99262.00;;;;2058487;28;20215;-55
2021/08/06 00:43:33;;;;;;;6.37;5.77;;;;;23.10;99260.00;;;;2055244;28;20225;-55
2021/08/06 00:44:33;;;;;;;6.50;5.90;;;;;23.10;99255.00;;;;2055303;28;20216;-55
2021/08/06 00:45:34;;;;;;;7.00;5.20;;;;;23.10;99248.00;;;;2059219;28;20215;-55
2021/08/06 00:46:35;;;;;;;5.87;5.37;;;;;23.10;99259.00;;;;2060030;28;20217;-55
2021/08/06 00:47:35;;;;;;;5.80;5.30;;;;;23.10;99248.00;;;;2056358;28;20465;-55
2021/08/06 00:48:35;;;;;;;5.73;5.20;;;;;23.10;99252.00;;;;2060546;28;20679;-55
2021/08/06 00:49:36;;;;;;;6.50;5.90;;;;;23.10;99248.00;;;;2067123;28;20759;-55
2021/08/06 00:50:36;;;;;;;5.10;4.70;;;;;23.10;99251.00;;;;2063493;28;20635;-55
2021/08/06 00:51:37;;;;;;;6.43;5.90;;;;;23.10;99256.00;;;;2078967;28;20317;-56
2021/08/06 00:52:38;;;;;;;6.07;5.57;;;;;23.10;99251.00;;;;2079171;28;20215;-55
2021/08/06 00:53:39;;;;;;;6.30;5.70;;;;;23.10;99246.00;;;;2070710;28;20698;-55
2021/08/06 00:54:40;;;;;;;6.03;5.53;;;;;23.10;99246.00;;;;2062817;28;20588;-55
2021/08/06 00:55:40;;;;;;;5.80;5.20;;;;;23.10;99240.00;;;;2070228;28;20225;-55
2021/08/06 00:56:40;;;;;;;5.50;5.00;;;;;23.10;99252.00;;;;2071585;28;20691;-56
2021/08/06 00:57:41;;;;;;;5.20;4.80;;;;;23.10;99248.00;;;;2071374;28;20236;-56
2021/08/06 00:58:41;;;;;;;6.17;5.57;;;;;23.10;99244.00;;;;2071599;28;20276;-56
2021/08/06 00:59:41;;;;;;;5.43;5.00;;;;;23.10;99249.00;;;;2071518;28;20226;-56
2021/08/06 01:00:42;;;;;;;5.23;4.73;;;;;23.10;99243.00;;;;2070549;28;20210;-56
2021/08/06 01:01:46;;;;;;;5.10;4.70;;;;;23.10;99248.00;;;;2070462;28;20347;-55
2021/08/06 01:03:25;;;;;;;5.50;5.05;;;;;23.10;99249.00;;;;2078542;28;20213;-55
2021/08/06 01:04:31;;;;;;;6.30;5.70;;;;;23.10;99258.00;;;;2059410;28;20211;-56
2021/08/06 01:05:46;;;;;;;5.45;4.95;;;;;23.10;99257.00;;;;2042328;28;20224;-55
2021/08/06 01:06:58;;;;;;;5.88;5.38;;;;;23.10;99251.00;;;;2059618;28;20717;-55
2021/08/06 01:08:17;;;;;;;5.60;5.10;;;;;23.10;99261.00;;;;2067307;28;20742;-56
2021/08/06 01:09:37;;;;;;;5.32;4.82;;;;;23.10;99247.00;;;;2060264;28;20232;-56
2021/08/06 01:10:44;;;;;;;5.05;4.65;;;;;23.10;99247.00;;;;2068123;28;20226;-56
2021/08/06 01:11:46;;;;;;;5.68;5.20;;;;;23.10;99246.00;;;;2066955;28;20898;-55
2021/08/06 01:12:54;;;;;;;5.00;4.60;;;;;23.10;99242.00;;;;2063722;28;20219;-55
2021/08/06 01:13:55;;;;;;;5.88;4.88;;;;;23.00;99246.00;;;;2061186;28;20218;-55
2021/08/06 01:15:01;;;;;;;4.78;4.38;;;;;23.10;99244.00;;;;2062631;28;20226;-56
2021/08/06 01:16:03;;;;;;;4.80;4.30;;;;;23.10;99244.00;;;;2055914;28;20226;-56
2021/08/06 01:17:03;;;;;;;5.03;4.63;;;;;23.10;99242.00;;;;2056492;28;20215;-56
2021/08/06 01:18:05;;;;;;;4.87;4.47;;;;;23.10;99252.00;;;;2058418;28;20757;-55
2021/08/06 01:19:23;;;;;;;5.18;4.68;;;;;23.10;99248.00;;;;2063270;28;20223;-56
2021/08/06 01:20:28;;;;;;;4.55;4.18;;;;;23.10;99246.00;;;;2065308;28;20226;-55
2021/08/06 01:21:29;;;;;;;5.07;4.57;;;;;23.10;99249.00;;;;2057851;28;20215;-55
2021/08/06 01:22:41;;;;;;;4.57;4.10;;;;;23.10;99248.00;;;;2058806;28;20226;-56
2021/08/06 01:23:41;;;;;;;6.00;5.40;;;;;23.10;99247.00;;;;2064755;28;20215;-55
2021/08/06 01:24:43;;;;;;;5.13;4.73;;;;;23.10;99244.00;;;;2063277;28;20218;-55
2021/08/06 01:25:51;;;;;;;5.10;4.70;;;;;23.10;99244.00;;;;2063436;28;20223;-55
2021/08/06 01:26:51;;;;;;;4.28;3.88;;;;;23.10;99237.00;;;;2063201;28;20297;-56
2021/08/06 01:27:51;;;;;;;5.17;4.67;;;;;23.10;99230.00;;;;2062082;28;20207;-56
2021/08/06 01:28:52;;;;;;;4.67;4.27;;;;;23.10;99241.00;;;;2063195;28;20211;-55
2021/08/06 01:29:52;;;;;;;4.93;4.53;;;;;23.10;99234.00;;;;2063237;28;20218;-55
2021/08/06 01:30:52;;;;;;;4.53;4.13;;;;;23.00;99233.00;;;;2054989;28;20215;-55
2021/08/06 01:31:53;;;;;;;4.40;4.00;;;;;23.10;99231.00;;;;2055390;28;20210;-55
2021/08/06 01:32:55;;;;;;;4.70;4.30;;;;;23.10;99234.00;;;;2062783;28;20247;-56
2021/08/06 01:33:56;;;;;;;4.00;3.65;;;;;23.10;99233.00;;;;2062993;28;20246;-54
2021/08/06 01:34:56;;;;;;;4.70;4.30;;;;;23.10;99237.00;;;;2062909;28;20292;-55
2021/08/06 01:35:57;;;;;;;4.30;3.90;;;;;23.00;99227.00;;;;2063902;28;20219;-55
2021/08/06 01:36:57;;;;;;;4.63;4.23;;;;;23.10;99235.00;;;;2063899;28;20632;-55
2021/08/06 01:37:58;;;;;;;4.23;3.83;;;;;23.10;99233.00;;;;2063988;28;20222;-56
2021/08/06 01:38:58;;;;;;;4.90;4.50;;;;;23.10;99230.00;;;;2063609;28;20273;-56
2021/08/06 01:40:00;;;;;;;4.17;3.80;;;;;23.10;99233.00;;;;2066246;28;20253;-56
2021/08/06 01:41:19;;;;;;;4.57;4.18;;;;;23.10;99231.00;;;;2071175;28;20489;-57
2021/08/06 01:42:31;;;;;;;4.93;4.38;;;;;23.10;99225.00;;;;2063298;28;20260;-59
2021/08/06 01:43:57;;;;;;;4.50;4.10;;;;;23.10;99227.00;;;;2058204;28;20211;-55
2021/08/06 01:44:57;;;;;;;4.30;3.90;;;;;23.00;99232.00;;;;2057088;28;20266;-55
2021/08/06 01:46:16;;;;;;;4.00;3.70;;;;;23.10;99236.00;;;;2059469;28;20226;-55
2021/08/06 01:47:18;;;;;;;4.70;4.30;;;;;23.00;99229.00;;;;2063715;28;20301;-55
2021/08/06 01:48:19;;;;;;;4.38;4.07;;;;;23.10;99228.00;;;;2070610;28;20217;-56
2021/08/06 01:49:27;;;;;;;4.35;3.95;;;;;23.10;99232.00;;;;2056146;28;20690;-56
2021/08/06 01:50:31;;;;;;;3.90;3.50;;;;;23.10;99231.00;;;;2066084;28;20281;-55
2021/08/06 01:51:33;;;;;;;3.92;3.63;;;;;23.10;99233.00;;;;2078947;28;20208;-56
2021/08/06 01:52:38;;;;;;;4.38;3.97;;;;;23.10;99218.00;;;;2076416;28;20213;-56
2021/08/06 01:53:40;;;;;;;11.75;3.70;;;;;23.00;99222.00;;;;2074067;28;20226;-58
2021/08/06 01:54:41;;;;;;;4.53;3.80;;;;;23.10;99215.00;;;;2070214;28;20631;-56
2021/08/06 01:55:46;;;;;;;4.15;3.80;;;;;23.00;99223.00;;;;2062354;28;22233;-56
2021/08/06 01:56:47;;;;;;;4.10;3.70;;;;;23.10;99226.00;;;;2055368;28;20243;-58
2021/08/06 01:57:48;;;;;;;4.70;4.30;;;;;23.10;99227.00;;;;2056182;28;20242;-55
2021/08/06 01:58:50;;;;;;;3.40;3.07;;;;;23.00;99222.00;;;;2060735;28;20221;-55
2021/08/06 01:59:51;;;;;;;4.15;3.85;;;;;23.00;99219.00;;;;2062078;28;20466;-56
2021/08/06 02:00:53;;;;;;;4.43;4.00;;;;;23.10;99216.00;;;;2069863;28;20215;-56
2021/08/06 02:01:53;;;;;;;5.30;3.95;;;;;23.00;99219.00;;;;2061822;28;20513;-59
2021/08/06 02:02:54;;;;;;;3.97;3.67;;;;;23.10;99219.00;;;;2062528;28;20242;-57
2021/08/06 02:03:54;;;;;;;3.97;3.60;;;;;23.10;99208.00;;;;2070767;28;20225;-56
2021/08/06 02:04:55;;;;;;;4.10;3.60;;;;;23.00;99221.00;;;;2062520;28;20739;-57
2021/08/06 02:05:56;;;;;;;4.27;3.90;;;;;23.00;99210.00;;;;2057652;28;21197;-55
2021/08/06 02:06:56;;;;;;;4.70;4.30;;;;;23.00;99214.00;;;;2063264;28;20219;-56
2021/08/06 02:07:56;;;;;;;6.80;4.13;;;;;23.10;99205.00;;;;2070921;28;20210;-56
2021/08/06 02:08:57;;;;;;;3.70;3.40;;;;;23.10;99202.00;;;;2067292;28;20218;-57
2021/08/06 02:09:58;;;;;;;3.60;3.30;;;;;23.10;99207.00;;;;2067395;28;20218;-55
2021/08/06 02:10:58;;;;;;;4.00;3.70;;;;;23.10;99209.00;;;;2064294;28;20253;-55
2021/08/06 02:11:58;;;;;;;3.70;3.30;;;;;23.10;99207.00;;;;2062263;28;20215;-56
2021/08/06 02:12:59;;;;;;;3.23;2.93;;;;;23.10;99199.00;;;;2063119;28;20218;-56
2021/08/06 02:13:59;;;;;;;4.83;3.67;;;;;23.10;99211.00;;;;2062819;28;20262;-56
2021/08/06 02:15:00;;;;;;;3.77;3.30;;;;;23.10;99206.00;;;;2054655;28;20719;-54
2021/08/06 02:16:00;;;;;;;3.40;3.10;;;;;23.10;99203.00;;;;2063019;28;20222;-56
2021/08/06 02:17:01;;;;;;;3.40;3.10;;;;;23.10;99207.00;;;;2062434;28;20694;-56
2021/08/06 02:18:01;;;;;;;3.90;3.60;;;;;23.10;99208.00;;;;2061879;28;20735;-57
2021/08/06 02:19:02;;;;;;;4.50;3.50;;;;;23.10;99212.00;;;;2069053;28;20280;-54
2021/08/06 02:20:04;;;;;;;4.30;3.90;;;;;23.10;99210.00;;;;2061492;28;20223;-58
2021/08/06 02:21:07;;;;;;;3.97;3.30;;;;;23.10;99200.00;;;;2050975;28;20216;-55
2021/08/06 02:22:07;;;;;;;3.70;3.38;;;;;23.10;99208.00;;;;2070892;28;20224;-54
2021/08/06 02:23:08;;;;;;;3.90;3.20;;;;;23.10;99199.00;;;;2062780;28;20225;-56
2021/08/06 02:24:10;;;;;;;4.70;3.20;;;;;23.10;99204.00;;;;2046848;28;20252;-56
2021/08/06 02:25:11;;;;;;;7.90;3.30;;;;;23.10;99209.00;;;;2060640;28;20211;-56
2021/08/06 02:26:12;;;;;;;4.07;3.42;;;;;23.10;99199.00;;;;2062807;28;20245;-55
2021/08/06 02:27:14;;;;;;;4.27;2.97;;;;;23.10;99204.00;;;;2062841;28;20211;-56
2021/08/06 02:28:15;;;;;;;4.07;3.10;;;;;23.10;99195.00;;;;2062697;28;20215;-55
2021/08/06 02:29:16;;;;;;;4.73;3.17;;;;;23.10;99199.00;;;;2062759;28;20243;-55
2021/08/06 02:30:17;;;;;;;4.32;3.45;;;;;23.10;99200.00;;;;2062448;28;20241;-56
2021/08/06 02:31:19;;;;;;;3.03;2.77;;;;;23.10;99191.00;;;;2062720;28;20253;-55
2021/08/06 02:32:19;;;;;;;3.80;3.25;;;;;23.10;99191.00;;;;2054225;28;20228;-56
2021/08/06 02:33:19;;;;;;;3.40;3.10;;;;;23.10;99196.00;;;;2051017;28;20227;-55
2021/08/06 02:34:20;;;;;;;3.13;2.83;;;;;23.10;99194.00;;;;2060934;28;20237;-57
2021/08/06 02:35:20;;;;;;;3.40;3.10;;;;;23.10;99196.00;;;;2063978;28;20234;-53
2021/08/06 02:36:22;;;;;;;3.90;3.53;;;;;23.10;99199.00;;;;2055200;28;20618;-55
2021/08/06 02:37:22;;;;;;;3.50;3.20;;;;;23.10;99195.00;;;;2068573;28;20297;-54
2021/08/06 02:38:23;;;;;;;3.57;3.20;;;;;23.10;99198.00;;;;2060136;28;20219;-55
2021/08/06 02:39:25;;;;;;;3.25;2.90;;;;;23.10;99199.00;;;;2063644;28;20332;-56
2021/08/06 02:40:25;;;;;;;3.50;3.20;;;;;23.10;99201.00;;;;2070221;28;20969;-56
2021/08/06 02:41:27;;;;;;;3.70;2.87;;;;;23.10;99199.00;;;;2063258;28;20218;-57
2021/08/06 02:42:28;;;;;;;3.45;3.08;;;;;23.10;99199.00;;;;2058296;28;20242;-55
2021/08/06 02:43:28;;;;;;;3.63;3.10;;;;;23.10;99194.00;;;;2062144;28;20242;-56
2021/08/06 02:44:28;;;;;;;3.27;2.77;;;;;23.10;99194.00;;;;2062560;28;20223;-54
2021/08/06 02:45:29;;;;;;;3.17;2.87;;;;;23.10;99195.00;;;;2066530;28;20218;-54
2021/08/06 02:46:29;;;;;;;3.57;3.27;;;;;23.10;99194.00;;;;2065901;28;20218;-56
2021/08/06 02:47:30;;;;;;;3.13;2.83;;;;;23.10;99193.00;;;;2058364;28;20570;-57
2021/08/06 02:48:30;;;;;;;3.33;2.80;;;;;23.10;99191.00;;;;2065249;28;20348;-57
2021/08/06 02:49:33;;;;;;;3.27;2.97;;;;;23.10;99194.00;;;;2055056;28;20231;-57
2021/08/06 02:50:33;;;;;;;3.95;3.47;;;;;23.10;99194.00;;;;2058006;28;20217;-54
2021/08/06 02:51:33;;;;;;;4.33;3.93;;;;;23.10;99191.00;;;;2055472;28;20676;-54
2021/08/06 02:52:34;;;;;;;4.97;4.57;;;;;23.10;99191.00;;;;2067034;28;20629;-57
2021/08/06 02:53:35;;;;;;;10.73;9.70;;;;;23.10;99186.00;;;;2067212;28;20214;-55
2021/08/06 02:54:35;;;;;;;17.25;15.43;;;;;23.10;99192.00;;;;2062070;28;20254;-55
2021/08/06 02:55:36;;;;;;;13.00;11.60;;;;;23.10;99185.00;;;;2065726;28;20211;-56
2021/08/06 02:56:36;;;;;;;31.30;27.27;;;;;23.10;99186.00;;;;2067201;28;20222;-57
2021/08/06 02:57:37;;;;;;;39.97;35.60;;;;;23.10;99182.00;;;;2063010;28;20207;-56
2021/08/06 02:58:37;;;;;;;26.07;23.27;;;;;23.10;99188.00;;;;2070654;28;20301;-57
2021/08/06 02:59:38;;;;;;;21.73;17.60;;;;;23.10;99181.00;;;;2066297;28;20249;-55
2021/08/06 03:00:38;;;;;;;23.63;20.40;;;;;23.10;99187.00;;;;2066816;28;20214;-56
2021/08/06 03:01:38;;;;;;;31.53;28.23;;;;;23.10;99179.00;;;;2063730;28;20337;-56
2021/08/06 03:02:39;;;;;;;56.47;48.43;;;;;23.10;99188.00;;;;2066321;28;20265;-56
2021/08/06 03:03:39;;;;;;;41.10;35.13;;;;;23.10;99182.00;;;;2067133;28;21064;-53
2021/08/06 03:04:39;;;;;;;56.63;44.87;;;;;23.10;99175.00;;;;2062819;28;21036;-54
2021/08/06 03:05:40;;;;;;;49.43;42.20;;;;;23.10;99179.00;;;;2067132;28;20626;-54
2021/08/06 03:06:40;;;;;;;54.50;45.17;;;;;23.10;99174.00;;;;2059631;28;20208;-54
2021/08/06 03:07:47;;;;;;;46.70;38.77;;;;;23.10;99179.00;;;;2057574;28;20211;-56
2021/08/06 03:08:47;;;;;;;104.75;82.75;;;;;23.10;99172.00;;;;2056901;28;20211;-56
2021/08/06 03:09:48;;;;;;;58.27;48.33;;;;;23.10;99175.00;;;;2057005;28;20307;-54
2021/08/06 03:10:48;;;;;;;67.20;54.60;;;;;23.10;99174.00;;;;2056472;28;20255;-55
2021/08/06 03:11:48;;;;;;;142.87;111.47;;;;;23.10;99178.00;;;;2059764;28;20659;-54
2021/08/06 03:12:49;;;;;;;188.43;141.17;;;;;23.10;99177.00;;;;2055035;28;20215;-56
2021/08/06 03:13:50;;;;;;;147.60;115.00;;;;;23.10;99175.00;;;;2057346;28;20295;-54
2021/08/06 03:14:51;;;;;;;152.47;120.60;;;;;23.10;99174.00;;;;2054845;28;20677;-54
2021/08/06 03:15:51;;;;;;;117.45;91.13;;;;;23.10;99165.00;;;;2059354;28;20230;-56
2021/08/06 03:16:52;;;;;;;146.40;110.80;;;;;23.10;99178.00;;;;2055740;28;20204;-57
2021/08/06 03:17:52;;;;;;;80.07;64.33;;;;;23.10;99167.00;;;;2057110;28;20207;-56
2021/08/06 03:18:53;;;;;;;43.00;37.70;;;;;23.10;99170.00;;;;2058218;28;20213;-55
2021/08/06 03:19:53;;;;;;;94.50;74.33;;;;;23.10;99166.00;;;;2058305;28;20326;-56
2021/08/06 03:20:55;;;;;;;76.63;61.60;;;;;23.10;99165.00;;;;2054482;28;20219;-57
2021/08/06 03:21:55;;;;;;;101.70;78.60;;;;;23.10;99172.00;;;;2061161;28;20301;-57
2021/08/06 03:22:56;;;;;;;68.37;56.80;;;;;23.10;99173.00;;;;2065824;28;20225;-57
2021/08/06 03:23:56;;;;;;;68.03;56.17;;;;;23.10;99177.00;;;;2063492;28;20679;-56
2021/08/06 03:24:56;;;;;;;114.50;87.73;;;;;23.10;99168.00;;;;2057945;28;20227;-54
2021/08/06 03:25:57;;;;;;;98.67;76.67;;;;;23.10;99161.00;;;;2057876;28;20223;-57
2021/08/06 03:26:57;;;;;;;110.70;87.40;;;;;23.10;99165.00;;;;2063740;28;20223;-56
2021/08/06 03:27:58;;;;;;;100.43;76.93;;;;;23.10;99168.00;;;;2057814;28;20230;-55
2021/08/06 03:28:58;;;;;;;77.37;61.80;;;;;23.10;99173.00;;;;2060133;28;20219;-55
2021/08/06 03:29:59;;;;;;;104.33;80.73;;;;;23.10;99170.00;;;;2062166;28;20250;-54
2021/08/06 03:30:59;;;;;;;140.37;109.33;;;;;23.10;99173.00;;;;2055226;28;20751;-55
2021/08/06 03:31:59;;;;;;;99.27;80.13;;;;;23.10;99170.00;;;;2054581;28;20251;-57
2021/08/06 03:33:00;;;;;;;100.47;80.53;;;;;23.10;99172.00;;;;2058232;28;20839;-56
2021/08/06 03:34:00;;;;;;;67.77;57.83;;;;;23.10;99173.00;;;;2054205;28;20565;-55
2021/08/06 03:35:01;;;;;;;81.73;64.87;;;;;23.10;99172.00;;;;2053996;28;20254;-54
2021/08/06 03:36:01;;;;;;;72.70;60.07;;;;;23.10;99166.00;;;;2054494;28;20220;-55
2021/08/06 03:37:03;;;;;;;71.57;61.60;;;;;23.10;99177.00;;;;2063368;28;20229;-56
2021/08/06 03:38:18;;;;;;;81.43;64.38;;;;;23.10;99171.00;;;;2064716;28;20214;-56
2021/08/06 03:39:19;;;;;;;70.63;59.60;;;;;23.00;99173.00;;;;2062113;28;20221;-54
2021/08/06 03:40:19;;;;;;;80.23;64.80;;;;;23.10;99174.00;;;;2062005;28;20222;-56
2021/08/06 03:41:19;;;;;;;74.00;60.53;;;;;23.10;99175.00;;;;2062958;28;20289;-55
2021/08/06 03:42:20;;;;;;;76.57;63.47;;;;;23.10;99171.00;;;;2062663;28;20203;-56
2021/08/06 03:43:20;;;;;;;72.37;58.97;;;;;23.10;99175.00;;;;2061245;28;20829;-57
2021/08/06 03:44:21;;;;;;;80.13;63.03;;;;;23.10;99173.00;;;;2065230;28;20222;-56
2021/08/06 03:45:21;;;;;;;99.23;77.10;;;;;23.10;99178.00;;;;2064619;28;20202;-54
2021/08/06 03:46:22;;;;;;;85.40;65.63;;;;;23.10;99175.00;;;;2063761;28;20209;-56
2021/08/06 03:47:22;;;;;;;83.47;68.03;;;;;23.10;99175.00;;;;2062839;28;20306;-57
2021/08/06 03:48:22;;;;;;;74.23;61.67;;;;;23.10;99178.00;;;;2061569;28;20293;-56
2021/08/06 03:49:23;;;;;;;83.73;67.33;;;;;23.10;99172.00;;;;2062782;28;20719;-55
2021/08/06 03:50:23;;;;;;;92.77;72.40;;;;;23.10;99179.00;;;;2062470;28;20592;-54
2021/08/06 03:51:23;;;;;;;83.33;62.90;;;;;23.10;99170.00;;;;2062805;28;20215;-54
2021/08/06 03:52:24;;;;;;;70.60;59.30;;;;;23.10;99167.00;;;;2062790;28;20210;-55
2021/08/06 03:53:24;;;;;;;80.17;59.70;;;;;23.10;99177.00;;;;2062131;28;20211;-55
2021/08/06 03:54:24;;;;;;;71.07;58.97;;;;;23.10;99168.00;;;;2061514;28;20219;-56
2021/08/06 03:55:25;;;;;;;77.97;62.10;;;;;23.00;99162.00;;;;2062329;28;20210;-57
2021/08/06 03:56:25;;;;;;;73.37;60.57;;;;;23.00;99171.00;;;;2062324;28;20277;-55
2021/08/06 03:57:25;;;;;;;75.73;60.13;;;;;23.10;99169.00;;;;2061374;28;20211;-54
2021/08/06 03:58:26;;;;;;;73.47;58.63;;;;;23.10;99164.00;;;;2062037;28;20215;-56
2021/08/06 03:59:26;;;;;;;73.90;58.40;;;;;23.10;99173.00;;;;2061804;28;20221;-55
2021/08/06 04:00:28;;;;;;;78.93;61.83;;;;;23.10;99168.00;;;;2061759;28;21013;-55
2021/08/06 04:01:28;;;;;;;69.47;56.40;;;;;23.10;99171.00;;;;2062045;28;20215;-55
2021/08/06 04:02:28;;;;;;;73.63;59.07;;;;;23.10;99164.00;;;;2065503;28;20264;-55
2021/08/06 04:03:29;;;;;;;72.70;58.20;;;;;23.10;99165.00;;;;2067095;28;20308;-55
2021/08/06 04:04:29;;;;;;;71.80;57.37;;;;;23.10;99162.00;;;;2077280;28;20212;-56
2021/08/06 04:05:29;;;;;;;70.40;58.03;;;;;23.10;99164.00;;;;2068006;28;20205;-56
2021/08/06 04:06:30;;;;;;;64.37;56.00;;;;;23.10;99165.00;;;;2065893;28;20206;-55
2021/08/06 04:07:30;;;;;;;66.30;55.17;;;;;23.10;99164.00;;;;2065411;28;20301;-56
2021/08/06 04:08:30;;;;;;;66.07;54.57;;;;;23.10;99166.00;;;;2062707;28;20218;-55
2021/08/06 04:09:31;;;;;;;62.93;53.67;;;;;23.10;99168.00;;;;2062787;28;20726;-55
2021/08/06 04:10:31;;;;;;;58.53;50.73;;;;;23.10;99159.00;;;;2062299;28;20859;-55
2021/08/06 04:11:31;;;;;;;59.70;50.70;;;;;23.10;99158.00;;;;2062735;28;21101;-56
2021/08/06 04:12:32;;;;;;;58.60;49.57;;;;;23.10;99166.00;;;;2066081;28;20316;-56
2021/08/06 04:13:32;;;;;;;62.50;51.97;;;;;23.10;99161.00;;;;2069882;28;20236;-54
2021/08/06 04:14:32;;;;;;;64.03;53.73;;;;;23.10;99163.00;;;;2070528;28;20215;-54
2021/08/06 04:15:33;;;;;;;59.73;50.60;;;;;23.10;99170.00;;;;2070487;28;20297;-54
2021/08/06 04:16:33;;;;;;;59.97;52.93;;;;;23.10;99166.00;;;;2070112;28;20341;-56
2021/08/06 04:17:34;;;;;;;61.40;50.63;;;;;23.10;99171.00;;;;2070791;28;20221;-57
2021/08/06 04:18:34;;;;;;;54.83;47.30;;;;;23.10;99158.00;;;;2070522;28;20330;-55
2021/08/06 04:19:34;;;;;;;56.30;48.80;;;;;23.10;99168.00;;;;2070449;28;20639;-54
2021/08/06 04:20:35;;;;;;;55.97;48.00;;;;;22.90;99171.00;;;;2070468;28;20532;-56
2021/08/06 04:21:35;;;;;;;56.90;48.30;;;;;23.10;99169.00;;;;2070789;28;20671;-55
2021/08/06 04:22:36;;;;;;;60.40;51.13;;;;;23.10;99169.00;;;;2070797;28;20297;-56
2021/08/06 04:23:36;;;;;;;58.60;50.10;;;;;23.10;99176.00;;;;2070646;28;20264;-56
2021/08/06 04:24:36;;;;;;;52.83;47.13;;;;;23.10;99171.00;;;;2069993;28;20214;-54
2021/08/06 04:25:37;;;;;;;59.03;50.80;;;;;23.10;99171.00;;;;2064705;28;20226;-55
2021/08/06 04:26:37;;;;;;;56.83;48.67;;;;;23.10;99172.00;;;;2063976;28;20675;-57
2021/08/06 04:27:38;;;;;;;57.10;46.03;;;;;23.10;99170.00;;;;2063612;28;20621;-57
2021/08/06 04:28:38;;;;;;;54.53;47.20;;;;;23.10;99174.00;;;;2062546;28;20223;-57
2021/08/06 04:29:39;;;;;;;52.10;45.57;;;;;23.10;99167.00;;;;2062481;28;20560;-54
2021/08/06 04:30:39;;;;;;;52.47;45.03;;;;;23.10;99167.00;;;;2062535;28;20229;-55
2021/08/06 04:31:39;;;;;;;54.73;45.53;;;;;23.10;99173.00;;;;2066206;28;20217;-54
2021/08/06 04:32:40;;;;;;;52.93;44.60;;;;;23.00;99169.00;;;;2070890;28;20214;-56
2021/08/06 04:33:40;;;;;;;44.50;39.67;;;;;23.10;99175.00;;;;2070638;28;20669;-56
2021/08/06 04:34:41;;;;;;;43.20;37.67;;;;;23.10;99174.00;;;;2070549;28;20297;-56
2021/08/06 04:35:41;;;;;;;46.83;40.70;;;;;23.10;99164.00;;;;2070564;28;20241;-54
2021/08/06 04:36:41;;;;;;;51.53;43.70;;;;;23.10;99165.00;;;;2070852;28;20225;-55
2021/08/06 04:37:56;;;;;;;48.90;41.67;;;;;23.10;99169.00;;;;2070504;28;20301;-57
2021/08/06 04:38:56;;;;;;;48.80;42.60;;;;;23.10;99161.00;;;;2070462;28;20297;-57
2021/08/06 04:39:57;;;;;;;46.23;41.23;;;;;23.10;99158.00;;;;2070124;28;20228;-56
2021/08/06 04:40:57;;;;;;;48.13;40.90;;;;;23.10;99163.00;;;;2069798;28;20211;-57
2021/08/06 04:41:58;;;;;;;47.20;40.33;;;;;23.10;99166.00;;;;2070032;28;20210;-55
2021/08/06 04:42:58;;;;;;;45.40;39.13;;;;;23.10;99171.00;;;;2070960;28;20477;-54
2021/08/06 04:43:59;;;;;;;46.47;40.50;;;;;23.10;99168.00;;;;2070717;28;20314;-54
2021/08/06 04:44:59;;;;;;;46.23;39.20;;;;;23.10;99168.00;;;;2070554;28;20225;-56
2021/08/06 04:45:59;;;;;;;46.10;38.80;;;;;23.10;99170.00;;;;2069526;28;20264;-54
2021/08/06 04:46:59;;;;;;;46.90;40.10;;;;;23.10;99166.00;;;;2068163;28;20206;-56
2021/08/06 04:48:03;;;;;;;42.03;35.60;;;;;23.10;99169.00;;;;2070726;28;20725;-55
2021/08/06 04:49:04;;;;;;;40.95;36.40;;;;;23.10;99161.00;;;;2070584;28;20579;-55
2021/08/06 04:50:05;;;;;;;45.53;39.50;;;;;23.10;99165.00;;;;2070531;28;20226;-56
2021/08/06 04:51:05;;;;;;;43.75;39.05;;;;;23.10;99169.00;;;;2065338;28;20218;-55
2021/08/06 04:52:06;;;;;;;39.73;35.43;;;;;23.10;99168.00;;;;2069337;28;20773;-56
2021/08/06 04:53:06;;;;;;;36.63;32.63;;;;;23.10;99171.00;;;;2070281;28;20218;-56
2021/08/06 04:54:07;;;;;;;36.80;32.00;;;;;23.10;99165.00;;;;2070099;28;20222;-56
2021/08/06 04:55:08;;;;;;;45.53;38.87;;;;;23.10;99173.00;;;;2064445;28;20699;-56
2021/08/06 04:56:09;;;;;;;38.57;34.33;;;;;23.10;99166.00;;;;2064101;28;20301;-56
2021/08/06 04:57:09;;;;;;;39.88;35.58;;;;;23.10;99164.00;;;;2063772;28;20477;-55
2021/08/06 04:58:10;;;;;;;40.43;34.50;;;;;23.00;99169.00;;;;2058993;28;20229;-54
2021/08/06 04:59:10;;;;;;;40.50;34.93;;;;;23.10;99162.00;;;;2068822;28;20702;-56
2021/08/06 05:00:11;;;;;;;40.53;35.20;;;;;23.10;99169.00;;;;2069272;28;20588;-56
2021/08/06 05:01:11;;;;;;;42.07;35.10;;;;;23.10;99168.00;;;;2070341;28;20296;-55
2021/08/06 05:02:12;;;;;;;43.00;36.80;;;;;23.10;99169.00;;;;2070502;28;20446;-54
2021/08/06 05:03:12;;;;;;;39.77;34.43;;;;;23.10;99156.00;;;;2069509;28;20761;-55
2021/08/06 05:04:12;;;;;;;36.17;30.33;;;;;23.10;99159.00;;;;2070540;28;20214;-57